Time;durP1;ratioP1;P1;durP2;ratioP2;P2;SDS_P1;SDS_P2;PMS_P1;PMS_P2;Temp;Humidity;BMP_temperature;BMP_pressure;BME280_temperature;BME280_humidity;BME280_pressure;Samples;Min_cycle;Max_cycle;Signal;HPM_P1;HPM_P2
2023/04/06 00:00:09;;;;;;;11.40;8.97;;;7.10;68.90;;;;;;5053747;28;20507;-59
2023/04/06 00:02:36;;;;;;;11.80;9.07;;;7.10;68.90;;;;;;5053735;28;20452;-59
2023/04/06 00:05:05;;;;;;;11.83;9.13;;;7.00;69.30;;;;;;5053663;28;20467;-59
2023/04/06 00:07:33;;;;;;;15.40;9.60;;;7.00;69.50;;;;;;5053507;28;20878;-59
2023/04/06 00:10:00;;;;;;;11.77;9.20;;;7.00;70.10;;;;;;5053298;28;20449;-59
2023/04/06 00:12:26;;;;;;;12.37;11.07;;;6.90;70.90;;;;;;5053193;28;20450;-59
2023/04/06 00:14:53;;;;;;;16.97;10.00;;;6.90;70.00;;;;;;5053107;28;20469;-59
2023/04/06 00:17:20;;;;;;;14.40;8.90;;;6.90;70.40;;;;;;5053163;28;20965;-59
2023/04/06 00:19:47;;;;;;;10.43;9.03;;;6.90;70.50;;;;;;5053365;28;20445;-59
2023/04/06 00:22:15;;;;;;;11.27;9.40;;;6.80;70.50;;;;;;5053217;28;20452;-58
2023/04/06 00:24:41;;;;;;;11.40;9.90;;;6.80;70.40;;;;;;5053391;28;20488;-58
2023/04/06 00:27:08;;;;;;;13.03;10.20;;;6.80;70.40;;;;;;5053302;28;20472;-59
2023/04/06 00:29:35;;;;;;;13.67;10.00;;;6.70;70.30;;;;;;5053305;28;20453;-59
2023/04/06 00:32:02;;;;;;;13.27;10.07;;;6.70;70.50;;;;;;5053328;28;20468;-59
2023/04/06 00:34:29;;;;;;;12.10;9.73;;;6.70;70.90;;;;;;5053343;28;20910;-59
2023/04/06 00:36:55;;;;;;;15.67;9.87;;;6.70;70.90;;;;;;5053292;28;20450;-60
2023/04/06 00:39:24;;;;;;;12.93;10.27;;;6.70;71.00;;;;;;5052970;28;20491;-59
2023/04/06 00:41:53;;;;;;;11.90;10.07;;;6.70;71.00;;;;;;5053190;28;20442;-59
2023/04/06 00:44:20;;;;;;;13.90;9.90;;;6.70;71.00;;;;;;5053229;28;20480;-59
2023/04/06 00:46:47;;;;;;;16.00;9.73;;;6.60;70.80;;;;;;5053112;28;20798;-59
2023/04/06 00:49:14;;;;;;;15.37;10.30;;;6.60;70.90;;;;;;5052820;28;20442;-59
2023/04/06 00:51:40;;;;;;;13.50;9.67;;;6.60;71.10;;;;;;5053044;28;20448;-59
2023/04/06 00:54:07;;;;;;;12.20;9.20;;;6.60;71.20;;;;;;5053224;28;20461;-57
2023/04/06 00:56:36;;;;;;;12.80;9.60;;;6.60;71.00;;;;;;5053059;28;20460;-56
2023/04/06 00:59:03;;;;;;;13.70;10.10;;;6.50;71.00;;;;;;5052999;28;20508;-57
2023/04/06 01:01:32;;;;;;;12.73;8.87;;;6.50;71.40;;;;;;5053132;28;20445;-58
2023/04/06 01:03:59;;;;;;;10.63;8.37;;;6.50;71.60;;;;;;5056149;28;20504;-59
2023/04/06 01:06:26;;;;;;;11.97;8.90;;;6.50;72.00;;;;;;5056734;28;20893;-58
2023/04/06 01:08:52;;;;;;;15.20;9.00;;;6.50;72.60;;;;;;5056866;28;20452;-57
2023/04/06 01:11:19;;;;;;;11.83;9.33;;;6.40;72.40;;;;;;5056733;28;20449;-57
2023/04/06 01:13:47;;;;;;;13.20;8.53;;;6.40;73.00;;;;;;5056686;28;20469;-57
2023/04/06 01:16:14;;;;;;;13.90;8.23;;;6.40;73.30;;;;;;5056619;28;20464;-57
2023/04/06 01:18:43;;;;;;;12.13;7.67;;;6.30;73.40;;;;;;5056632;28;20507;-57
2023/04/06 01:21:15;;;;;;;9.13;7.60;;;6.30;73.90;;;;;;5056409;28;20445;-56
2023/04/06 01:23:43;;;;;;;12.97;8.23;;;6.30;73.90;;;;;;5056517;28;20520;-57
2023/04/06 01:26:10;;;;;;;11.77;8.03;;;6.20;73.70;;;;;;5056517;28;20449;-57
2023/04/06 01:28:38;;;;;;;14.50;10.27;;;6.10;73.90;;;;;;5056121;28;20536;-57
2023/04/06 01:31:05;;;;;;;11.80;8.00;;;6.10;74.10;;;;;;5056380;28;20446;-57
2023/04/06 01:33:32;;;;;;;12.50;7.93;;;6.10;74.30;;;;;;5056439;28;20900;-57
2023/04/06 01:35:59;;;;;;;11.57;8.50;;;6.10;74.40;;;;;;5056053;28;20964;-57
2023/04/06 01:38:26;;;;;;;11.63;8.20;;;6.10;74.50;;;;;;5056016;28;20860;-57
2023/04/06 01:40:55;;;;;;;10.07;8.33;;;6.10;74.70;;;;;;5056253;28;20434;-58
2023/04/06 01:43:22;;;;;;;12.67;8.00;;;6.10;75.80;;;;;;5056111;28;20811;-58
2023/04/06 01:45:49;;;;;;;12.20;8.43;;;6.10;75.20;;;;;;5056224;28;20481;-57
2023/04/06 01:48:16;;;;;;;15.57;9.07;;;6.00;75.20;;;;;;5056023;28;20441;-57
2023/04/06 01:50:43;;;;;;;13.80;8.83;;;6.00;75.60;;;;;;5056129;28;20449;-57
2023/04/06 01:53:09;;;;;;;13.07;7.87;;;6.00;75.40;;;;;;5055914;28;20481;-57
2023/04/06 01:55:36;;;;;;;14.13;9.37;;;6.00;75.50;;;;;;5055871;28;20446;-57
2023/04/06 01:58:04;;;;;;;19.10;9.50;;;6.00;75.50;;;;;;5055760;28;20493;-57
2023/04/06 02:00:31;;;;;;;18.60;10.43;;;5.90;75.80;;;;;;5055836;28;20445;-58
2023/04/06 02:02:58;;;;;;;16.67;9.33;;;5.90;75.90;;;;;;5055795;28;20472;-57
2023/04/06 02:05:25;;;;;;;15.97;9.97;;;5.90;75.90;;;;;;5055542;28;20453;-57
2023/04/06 02:07:52;;;;;;;18.00;8.93;;;5.80;75.80;;;;;;5055695;28;20449;-57
2023/04/06 02:10:19;;;;;;;14.33;10.30;;;5.80;76.00;;;;;;5055463;28;20457;-58
2023/04/06 02:12:46;;;;;;;17.20;11.30;;;5.90;76.10;;;;;;5055626;28;20532;-57
2023/04/06 02:15:14;;;;;;;14.30;11.20;;;5.90;76.00;;;;;;5055406;28;20451;-57
2023/04/06 02:17:41;;;;;;;24.23;11.83;;;5.90;75.80;;;;;;5055552;28;20456;-57
2023/04/06 02:20:09;;;;;;;16.00;10.63;;;5.90;75.80;;;;;;5055385;28;20484;-57
2023/04/06 02:22:36;;;;;;;20.30;12.63;;;5.90;76.10;;;;;;5055526;28;20453;-57
2023/04/06 02:25:03;;;;;;;15.43;10.53;;;5.90;76.30;;;;;;5055343;28;20473;-57
2023/04/06 02:27:30;;;;;;;14.60;10.83;;;5.90;76.30;;;;;;5055052;28;20450;-57
2023/04/06 02:29:57;;;;;;;15.20;11.70;;;5.90;76.40;;;;;;5055048;28;20445;-57
2023/04/06 02:32:25;;;;;;;15.33;11.30;;;5.90;76.50;;;;;;5055337;28;20536;-57
2023/04/06 02:34:52;;;;;;;19.20;12.50;;;5.90;76.60;;;;;;5055450;28;20479;-57
2023/04/06 02:37:19;;;;;;;16.80;11.43;;;5.90;76.70;;;;;;5058591;28;20446;-57
2023/04/06 02:39:46;;;;;;;15.07;12.13;;;5.90;76.30;;;;;;5057278;28;20488;-57
2023/04/06 02:42:14;;;;;;;18.57;11.57;;;5.90;76.70;;;;;;5056414;28;20450;-57
2023/04/06 02:44:41;;;;;;;16.00;12.00;;;5.90;76.60;;;;;;5055377;28;20466;-57
2023/04/06 02:47:08;;;;;;;18.23;11.93;;;5.80;76.90;;;;;;5055202;28;20829;-57
2023/04/06 02:49:36;;;;;;;14.70;11.37;;;5.80;76.50;;;;;;5055373;28;20962;-57
2023/04/06 02:52:03;;;;;;;18.47;12.30;;;5.80;76.50;;;;;;5054879;28;20453;-57
2023/04/06 02:54:30;;;;;;;15.00;11.90;;;5.70;77.10;;;;;;5054761;28;20979;-58
2023/04/06 02:56:57;;;;;;;17.93;12.50;;;5.70;76.90;;;;;;5054747;28;20449;-57
2023/04/06 02:59:24;;;;;;;18.70;12.90;;;5.70;77.30;;;;;;5054432;28;20477;-57
2023/04/06 03:01:51;;;;;;;18.37;11.93;;;5.70;77.50;;;;;;5055487;28;20461;-57
2023/04/06 03:04:17;;;;;;;19.17;12.37;;;5.70;77.70;;;;;;5054768;28;20476;-57
2023/04/06 03:06:46;;;;;;;18.13;11.37;;;5.70;78.10;;;;;;5055274;28;20453;-57
2023/04/06 03:09:13;;;;;;;15.60;11.70;;;5.70;78.20;;;;;;5054309;28;20969;-58
2023/04/06 03:11:40;;;;;;;18.97;12.67;;;5.70;78.20;;;;;;5054643;28;20813;-57
2023/04/06 03:14:07;;;;;;;18.20;13.07;;;5.70;78.40;;;;;;5054245;28;20469;-57
2023/04/06 03:16:34;;;;;;;15.03;12.20;;;5.60;78.10;;;;;;5054513;28;20445;-57
2023/04/06 03:19:01;;;;;;;15.43;11.53;;;5.60;78.30;;;;;;5054489;28;20481;-57
2023/04/06 03:21:27;;;;;;;19.30;11.70;;;5.60;78.30;;;;;;5054432;28;20548;-57
2023/04/06 03:23:56;;;;;;;19.30;13.57;;;5.60;78.70;;;;;;5054271;28;20476;-57
2023/04/06 03:26:23;;;;;;;20.53;13.13;;;5.60;78.60;;;;;;5053749;28;20515;-57
2023/04/06 03:28:50;;;;;;;17.00;11.27;;;5.50;78.40;;;;;;5054114;28;20532;-58
2023/04/06 03:31:16;;;;;;;19.60;12.90;;;5.50;78.40;;;;;;5055002;28;20456;-57
2023/04/06 03:33:43;;;;;;;19.60;13.50;;;5.40;78.50;;;;;;5054098;28;20466;-57
2023/04/06 03:36:10;;;;;;;24.53;12.13;;;5.40;78.90;;;;;;5054014;28;20449;-57
2023/04/06 03:38:37;;;;;;;16.60;11.80;;;5.40;79.00;;;;;;5053767;28;20481;-57
2023/04/06 03:41:05;;;;;;;17.27;12.67;;;5.30;79.30;;;;;;5053600;28;20920;-57
2023/04/06 03:43:32;;;;;;;16.83;12.90;;;5.30;79.40;;;;;;5053482;28;21093;-57
2023/04/06 03:45:58;;;;;;;16.17;11.97;;;5.30;79.70;;;;;;5053829;28;20820;-58
2023/04/06 03:48:25;;;;;;;20.10;12.80;;;5.30;79.60;;;;;;5053862;28;20456;-57
2023/04/06 03:50:52;;;;;;;15.97;11.83;;;5.30;79.80;;;;;;5053437;28;20540;-58
2023/04/06 03:53:19;;;;;;;17.23;12.60;;;5.30;79.80;;;;;;5053719;28;20477;-56
2023/04/06 03:55:45;;;;;;;18.57;11.53;;;5.20;79.80;;;;;;5054272;28;20479;-57
2023/04/06 03:58:14;;;;;;;18.23;13.00;;;5.20;80.20;;;;;;5053824;28;20879;-57
2023/04/06 04:00:41;;;;;;;17.57;12.27;;;5.20;80.60;;;;;;5053409;28;20443;-57
2023/04/06 04:03:08;;;;;;;16.90;12.50;;;5.20;80.80;;;;;;5053745;28;20540;-57
2023/04/06 04:05:35;;;;;;;17.57;11.93;;;5.20;80.80;;;;;;5053278;28;20449;-58
2023/04/06 04:08:01;;;;;;;18.03;12.50;;;5.20;80.50;;;;;;5053774;28;20442;-57
2023/04/06 04:10:28;;;;;;;16.07;13.00;;;5.10;80.60;;;;;;5054747;28;20433;-57
2023/04/06 04:12:55;;;;;;;20.10;13.00;;;5.10;81.50;;;;;;5053461;28;20453;-57
2023/04/06 04:15:23;;;;;;;17.77;12.23;;;5.10;81.20;;;;;;5053711;28;20445;-57
2023/04/06 04:17:50;;;;;;;20.03;12.40;;;5.10;81.40;;;;;;5053761;28;20791;-57
2023/04/06 04:20:17;;;;;;;19.37;12.83;;;5.10;81.50;;;;;;5053160;28;20482;-57
2023/04/06 04:22:44;;;;;;;17.57;12.70;;;5.10;81.90;;;;;;5053564;28;20812;-57
2023/04/06 04:25:11;;;;;;;17.33;13.27;;;5.10;81.80;;;;;;5053226;28;20527;-57
2023/04/06 04:27:37;;;;;;;17.10;12.67;;;5.10;82.00;;;;;;5053662;28;20450;-57
2023/04/06 04:30:05;;;;;;;14.93;11.53;;;5.10;82.30;;;;;;5053453;28;20453;-57
2023/04/06 04:32:33;;;;;;;21.40;11.60;;;5.10;82.30;;;;;;5053365;28;20445;-57
2023/04/06 04:35:00;;;;;;;18.10;12.97;;;5.10;82.20;;;;;;5053522;28;20473;-58
2023/04/06 04:37:27;;;;;;;16.90;12.93;;;5.10;82.20;;;;;;5054783;28;21042;-57
2023/04/06 04:39:54;;;;;;;19.20;13.23;;;5.10;82.30;;;;;;5057956;28;20515;-57
2023/04/06 04:42:20;;;;;;;26.97;12.10;;;5.10;82.80;;;;;;5057819;28;20521;-57
2023/04/06 04:44:47;;;;;;;16.87;13.70;;;5.10;83.40;;;;;;5058143;28;20465;-57
2023/04/06 04:47:14;;;;;;;16.57;12.30;;;5.10;83.50;;;;;;5058078;28;20452;-57
2023/04/06 04:49:42;;;;;;;22.10;13.73;;;5.00;83.50;;;;;;5058580;28;20450;-57
2023/04/06 04:52:09;;;;;;;21.30;13.20;;;5.10;83.90;;;;;;5058628;28;20477;-57
2023/04/06 04:54:36;;;;;;;18.00;13.30;;;5.10;83.60;;;;;;5058771;28;20896;-57
2023/04/06 04:57:03;;;;;;;21.37;12.77;;;5.10;83.40;;;;;;5058882;28;20450;-58
2023/04/06 04:59:30;;;;;;;22.40;12.63;;;5.10;83.90;;;;;;5057900;28;20485;-57
2023/04/06 05:01:57;;;;;;;20.30;13.33;;;5.10;84.30;;;;;;5057501;28;20893;-57
2023/04/06 05:04:23;;;;;;;17.80;12.97;;;5.10;84.20;;;;;;5059398;28;20553;-57
2023/04/06 05:06:52;;;;;;;16.70;12.57;;;5.10;84.20;;;;;;5056822;28;20445;-57
2023/04/06 05:09:18;;;;;;;24.17;12.20;;;5.10;84.60;;;;;;5056965;28;20552;-57
2023/04/06 05:11:45;;;;;;;18.77;13.30;;;5.10;85.10;;;;;;5056831;28;20449;-57
2023/04/06 05:14:12;;;;;;;19.70;13.77;;;5.10;85.30;;;;;;5056878;28;20465;-57
2023/04/06 05:16:39;;;;;;;23.83;13.70;;;5.20;85.60;;;;;;5056862;28;20445;-57
2023/04/06 05:19:06;;;;;;;21.00;13.03;;;5.20;85.60;;;;;;5056594;28;20485;-57
2023/04/06 05:21:33;;;;;;;18.33;12.00;;;5.20;85.40;;;;;;5056599;28;20487;-57
2023/04/06 05:24:02;;;;;;;21.33;13.90;;;5.20;85.70;;;;;;5056291;28;20511;-57
2023/04/06 05:26:29;;;;;;;19.70;15.10;;;5.20;86.20;;;;;;5056607;28;20544;-57
2023/04/06 05:28:56;;;;;;;24.93;15.30;;;5.30;86.60;;;;;;5057149;28;20831;-57
2023/04/06 05:31:23;;;;;;;21.07;16.53;;;5.30;86.50;;;;;;5060559;28;20471;-57
2023/04/06 05:33:50;;;;;;;27.17;17.83;;;5.40;86.70;;;;;;5058885;28;20469;-57
2023/04/06 05:36:16;;;;;;;25.63;18.27;;;5.50;87.20;;;;;;5057165;28;20790;-57
2023/04/06 05:38:43;;;;;;;21.87;16.37;;;5.50;87.00;;;;;;5056894;28;20464;-57
2023/04/06 05:41:11;;;;;;;22.57;15.83;;;5.60;86.80;;;;;;5056887;28;20473;-57
2023/04/06 05:43:38;;;;;;;25.23;14.97;;;5.60;86.70;;;;;;5057127;28;20469;-58
2023/04/06 05:46:05;;;;;;;21.23;15.40;;;5.70;86.70;;;;;;5057099;28;20524;-57
2023/04/06 05:48:32;;;;;;;22.60;16.87;;;5.80;86.50;;;;;;5056812;28;20448;-57
2023/04/06 05:51:00;;;;;;;20.93;15.03;;;5.90;86.30;;;;;;5056932;28;20442;-57
2023/04/06 05:53:28;;;;;;;20.20;14.87;;;5.90;85.90;;;;;;5057053;28;20543;-58
2023/04/06 05:55:55;;;;;;;16.70;13.67;;;6.00;85.50;;;;;;5057400;28;20549;-59
2023/04/06 05:58:23;;;;;;;17.23;12.70;;;6.10;85.40;;;;;;5056921;28;20928;-58
2023/04/06 06:00:50;;;;;;;23.47;14.50;;;6.10;84.70;;;;;;5056810;28;20564;-58
2023/04/06 06:03:17;;;;;;;22.97;14.53;;;6.20;84.20;;;;;;5055948;28;20469;-59
2023/04/06 06:05:44;;;;;;;17.10;13.57;;;6.30;83.50;;;;;;5055905;28;20441;-59
2023/04/06 06:08:11;;;;;;;23.10;15.40;;;6.40;82.90;;;;;;5056670;28;20507;-58
2023/04/06 06:10:39;;;;;;;28.17;14.30;;;6.40;82.20;;;;;;5055944;28;20445;-58
2023/04/06 06:13:06;;;;;;;20.27;13.97;;;6.50;82.10;;;;;;5055848;28;20457;-58
2023/04/06 06:15:35;;;;;;;20.00;13.23;;;6.60;81.80;;;;;;5055678;28;20446;-58
2023/04/06 06:18:01;;;;;;;25.23;14.90;;;6.70;81.20;;;;;;5055255;28;20943;-57
2023/04/06 06:20:28;;;;;;;25.90;15.13;;;6.90;80.80;;;;;;5055506;28;20491;-58
2023/04/06 06:22:55;;;;;;;17.97;13.97;;;7.00;80.80;;;;;;5055475;28;20453;-58
2023/04/06 06:25:22;;;;;;;21.30;13.50;;;7.10;80.50;;;;;;5055208;28;20446;-58
2023/04/06 06:27:49;;;;;;;18.93;14.30;;;7.20;79.40;;;;;;5055431;28;20449;-57
2023/04/06 06:30:16;;;;;;;16.27;11.40;;;7.30;78.80;;;;;;5055057;28;20988;-58
2023/04/06 06:32:45;;;;;;;19.10;13.07;;;7.50;78.40;;;;;;5055308;28;20536;-58
2023/04/06 06:35:12;;;;;;;18.83;13.23;;;7.60;77.80;;;;;;5055290;28;20507;-58
2023/04/06 06:37:39;;;;;;;15.63;12.43;;;7.70;77.30;;;;;;5055428;28;20445;-58
2023/04/06 06:40:07;;;;;;;18.30;13.50;;;7.90;77.10;;;;;;5054861;28;20477;-58
2023/04/06 06:42:34;;;;;;;20.33;13.67;;;8.00;76.80;;;;;;5055164;28;20795;-58
2023/04/06 06:45:01;;;;;;;18.67;13.10;;;8.20;76.50;;;;;;5054974;28;20493;-58
2023/04/06 06:47:28;;;;;;;19.93;13.60;;;8.30;76.00;;;;;;5055038;28;20455;-58
2023/04/06 06:49:56;;;;;;;18.43;13.03;;;8.40;75.50;;;;;;5055513;28;20802;-58
2023/04/06 06:52:24;;;;;;;18.10;13.67;;;8.50;74.80;;;;;;5054871;28;20450;-58
2023/04/06 06:54:50;;;;;;;16.37;12.70;;;8.60;74.20;;;;;;5054476;28;20472;-58
2023/04/06 06:57:17;;;;;;;16.07;13.20;;;8.70;73.60;;;;;;5054916;28;20441;-58
2023/04/06 06:59:44;;;;;;;16.20;12.30;;;8.80;73.30;;;;;;5054049;28;20491;-58
2023/04/06 07:02:11;;;;;;;15.47;12.60;;;8.80;73.00;;;;;;5054546;28;20455;-58
2023/04/06 07:04:38;;;;;;;15.90;12.03;;;8.90;72.40;;;;;;5054617;28;20527;-59
2023/04/06 07:07:06;;;;;;;14.30;10.93;;;9.00;71.90;;;;;;5054637;28;20442;-58
2023/04/06 07:09:33;;;;;;;17.60;12.33;;;9.10;71.50;;;;;;5054580;28;20536;-58
2023/04/06 07:12:00;;;;;;;21.40;13.47;;;9.20;70.80;;;;;;5054536;28;20450;-58
2023/04/06 07:14:27;;;;;;;19.47;14.50;;;9.20;70.60;;;;;;5054311;28;20480;-58
2023/04/06 07:16:54;;;;;;;25.70;14.60;;;9.30;70.60;;;;;;5054316;28;20540;-58
2023/04/06 07:19:21;;;;;;;22.50;14.87;;;9.40;70.50;;;;;;5054580;28;20441;-58
2023/04/06 07:21:49;;;;;;;21.83;15.53;;;9.50;69.20;;;;;;5054259;28;20832;-58
2023/04/06 07:24:17;;;;;;;18.97;14.57;;;9.50;68.60;;;;;;5053765;28;20512;-58
2023/04/06 07:26:44;;;;;;;22.17;14.50;;;9.60;69.10;;;;;;5054203;28;20824;-59
2023/04/06 07:29:11;;;;;;;20.47;15.07;;;9.60;69.30;;;;;;5054518;28;20476;-58
2023/04/06 07:31:37;;;;;;;18.30;13.73;;;9.70;68.60;;;;;;5054113;28;20453;-58
2023/04/06 07:34:04;;;;;;;18.03;12.53;;;9.90;68.60;;;;;;5053948;28;20472;-58
2023/04/06 07:36:31;;;;;;;19.63;13.20;;;10.00;66.70;;;;;;5053810;28;20453;-58
2023/04/06 07:38:58;;;;;;;14.70;11.60;;;10.20;66.40;;;;;;5053752;28;20457;-58
2023/04/06 07:41:26;;;;;;;19.83;12.17;;;10.40;65.80;;;;;;5053971;28;20482;-58
2023/04/06 07:43:53;;;;;;;21.50;13.17;;;10.50;64.90;;;;;;5053503;28;21001;-58
2023/04/06 07:46:20;;;;;;;18.80;12.87;;;10.70;64.20;;;;;;5053852;28;20836;-58
2023/04/06 07:48:46;;;;;;;19.23;12.00;;;10.90;63.80;;;;;;5053816;28;20451;-58
2023/04/06 07:51:14;;;;;;;15.77;12.80;;;11.10;63.40;;;;;;5053880;28;20445;-58
2023/04/06 07:53:41;;;;;;;18.93;12.70;;;11.20;63.00;;;;;;5053742;28;20476;-58
2023/04/06 07:56:08;;;;;;;17.23;12.57;;;11.40;62.40;;;;;;5053695;28;20457;-58
2023/04/06 07:58:36;;;;;;;13.67;10.60;;;11.60;61.30;;;;;;5053674;28;20454;-58
2023/04/06 08:01:03;;;;;;;11.93;10.73;;;11.70;60.10;;;;;;5053231;28;20565;-58
2023/04/06 08:03:30;;;;;;;16.43;12.40;;;11.90;58.10;;;;;;5053214;28;20982;-58
2023/04/06 08:05:57;;;;;;;16.93;12.23;;;11.90;57.90;;;;;;5053187;28;20947;-58
2023/04/06 08:08:24;;;;;;;14.97;12.40;;;12.10;58.10;;;;;;5053144;28;20791;-58
2023/04/06 08:10:50;;;;;;;18.03;11.73;;;12.30;57.70;;;;;;5053294;28;20468;-58
2023/04/06 08:13:17;;;;;;;18.33;11.60;;;12.40;57.40;;;;;;5053436;28;20462;-58
2023/04/06 08:15:45;;;;;;;19.13;12.10;;;12.50;57.40;;;;;;5053406;28;20449;-58
2023/04/06 08:18:13;;;;;;;17.10;12.80;;;12.70;56.60;;;;;;5053421;28;20445;-58
2023/04/06 08:20:40;;;;;;;16.17;12.33;;;12.80;56.20;;;;;;5053364;28;20485;-58
2023/04/06 08:23:09;;;;;;;20.10;12.50;;;13.00;55.70;;;;;;5053770;28;20452;-59
2023/04/06 08:25:36;;;;;;;17.07;11.83;;;13.10;54.70;;;;;;5053295;28;20552;-59
2023/04/06 08:28:03;;;;;;;13.77;11.47;;;13.30;54.80;;;;;;5055220;28;20532;-59
2023/04/06 08:30:30;;;;;;;20.07;12.53;;;13.50;54.60;;;;;;5056220;28;20441;-59
2023/04/06 08:32:58;;;;;;;16.40;12.10;;;13.70;54.20;;;;;;5054819;28;20477;-58
2023/04/06 08:35:26;;;;;;;14.60;12.93;;;13.80;53.50;;;;;;5053769;28;20822;-59
2023/04/06 08:37:53;;;;;;;14.03;12.53;;;14.00;52.90;;;;;;5053430;28;20453;-58
2023/04/06 08:40:20;;;;;;;17.03;12.60;;;14.10;52.70;;;;;;5053574;28;20835;-59
2023/04/06 08:42:52;;;;;;;15.90;12.47;;;14.30;52.20;;;;;;5053307;28;20548;-59
2023/04/06 08:45:21;;;;;;;16.67;12.37;;;14.40;51.20;;;;;;5053204;28;20438;-59
2023/04/06 08:47:48;;;;;;;18.40;12.87;;;14.50;49.50;;;;;;5053038;28;20453;-59
2023/04/06 08:50:18;;;;;;;16.30;13.00;;;14.50;49.90;;;;;;5053046;28;20445;-59
2023/04/06 08:52:47;;;;;;;14.80;12.57;;;14.60;50.70;;;;;;5053095;28;20425;-59
2023/04/06 08:55:14;;;;;;;21.40;14.70;;;14.70;50.70;;;;;;5052820;28;21025;-59
2023/04/06 08:57:41;;;;;;;22.13;14.07;;;14.80;50.50;;;;;;5052822;28;20503;-59
2023/04/06 09:00:11;;;;;;;14.20;11.80;;;14.80;50.10;;;;;;5052900;28;20456;-59
2023/04/06 09:02:40;;;;;;;38.37;14.43;;;14.90;50.20;;;;;;5053081;28;20543;-59
2023/04/06 09:05:08;;;;;;;18.23;13.13;;;15.00;50.20;;;;;;5052912;28;20564;-59
2023/04/06 09:07:36;;;;;;;20.67;14.37;;;15.10;50.00;;;;;;5052995;28;20445;-59
2023/04/06 09:10:03;;;;;;;17.80;12.73;;;15.20;50.10;;;;;;5052970;28;20445;-59
2023/04/06 09:12:32;;;;;;;16.23;12.17;;;15.30;50.00;;;;;;5053002;28;20530;-59
2023/04/06 09:15:00;;;;;;;18.33;13.33;;;15.50;49.80;;;;;;5052739;28;20470;-59
2023/04/06 09:17:29;;;;;;;15.57;12.40;;;15.60;49.60;;;;;;5052894;28;20448;-59
2023/04/06 09:19:57;;;;;;;16.43;12.33;;;15.80;49.10;;;;;;5052809;28;20449;-59
2023/04/06 09:22:26;;;;;;;19.87;13.50;;;15.90;49.00;;;;;;5052519;28;20448;-59
2023/04/06 09:24:55;;;;;;;15.67;12.57;;;16.00;48.90;;;;;;5055695;28;21014;-59
2023/04/06 09:27:31;;;;;;;19.00;13.27;;;16.20;48.70;;;;;;5056175;28;20959;-58
2023/04/06 09:30:05;;;;;;;18.10;13.10;;;16.40;48.30;;;;;;5056524;28;20491;-59
2023/04/06 09:32:32;;;;;;;14.20;12.77;;;16.60;48.70;;;;;;5056640;28;20434;-59
2023/04/06 09:35:07;;;;;;;13.73;12.30;;;16.80;48.00;;;;;;5056301;28;20461;-58
2023/04/06 09:37:35;;;;;;;17.17;13.20;;;17.00;47.90;;;;;;5056435;28;20426;-59
2023/04/06 09:40:08;;;;;;;15.47;13.50;;;17.10;44.40;;;;;;5056014;28;20487;-59
2023/04/06 09:42:35;;;;;;;19.10;14.70;;;17.20;43.40;;;;;;5056327;28;20524;-59
2023/04/06 09:45:02;;;;;;;20.43;13.17;;;17.20;41.80;;;;;;5056200;28;20465;-59
2023/04/06 09:47:30;;;;;;;15.80;13.67;;;17.20;42.20;;;;;;5056117;28;20441;-59
2023/04/06 09:49:59;;;;;;;16.30;13.50;;;17.20;42.50;;;;;;5056130;28;20446;-59
2023/04/06 09:52:28;;;;;;;17.90;14.37;;;17.20;42.40;;;;;;5056034;28;20574;-59
2023/04/06 09:55:00;;;;;;;17.37;13.63;;;17.20;42.40;;;;;;5055881;28;20471;-59
2023/04/06 09:57:32;;;;;;;17.07;12.30;;;17.10;42.10;;;;;;5056020;28;20438;-59
2023/04/06 10:00:08;;;;;;;18.47;12.73;;;17.10;42.00;;;;;;5055964;28;20457;-59
2023/04/06 10:02:42;;;;;;;18.03;12.13;;;17.10;41.50;;;;;;5055856;28;20476;-59
2023/04/06 10:05:13;;;;;;;14.50;12.10;;;17.30;41.60;;;;;;5055507;28;21001;-59
2023/04/06 10:07:42;;;;;;;16.13;13.20;;;17.40;41.60;;;;;;5055964;28;20532;-59
2023/04/06 10:10:10;;;;;;;16.30;12.40;;;17.50;39.80;;;;;;5055758;28;20441;-59
2023/04/06 10:12:40;;;;;;;15.40;11.90;;;17.50;39.50;;;;;;5055779;28;20473;-59
2023/04/06 10:15:08;;;;;;;15.47;11.53;;;17.50;39.00;;;;;;5055668;28;20543;-60
2023/04/06 10:17:35;;;;;;;18.83;12.40;;;17.40;39.00;;;;;;5055575;28;20448;-58
2023/04/06 10:20:07;;;;;;;14.23;12.00;;;17.20;39.50;;;;;;5055548;28;20453;-59
2023/04/06 10:22:42;;;;;;;18.03;12.00;;;17.10;39.90;;;;;;5056025;28;20470;-59
2023/04/06 10:25:09;;;;;;;17.47;11.53;;;17.00;39.90;;;;;;5055493;28;20475;-58
2023/04/06 10:27:36;;;;;;;17.77;11.73;;;16.90;40.50;;;;;;5055434;28;20482;-59
2023/04/06 10:30:07;;;;;;;23.93;12.17;;;17.00;41.50;;;;;;5055119;28;20958;-59
2023/04/06 10:32:35;;;;;;;20.37;12.70;;;17.00;41.90;;;;;;5055355;28;20434;-59
2023/04/06 10:35:10;;;;;;;15.23;11.70;;;17.00;41.40;;;;;;5055287;28;20496;-58
2023/04/06 10:37:52;;;;;;;20.50;13.07;;;17.00;42.10;;;;;;5055410;28;20452;-58
2023/04/06 10:40:20;;;;;;;18.60;12.17;;;17.10;42.30;;;;;;5054903;28;20457;-58
2023/04/06 10:42:47;;;;;;;15.67;12.20;;;17.20;41.40;;;;;;5055088;28;20485;-59
2023/04/06 10:45:23;;;;;;;15.90;11.90;;;17.30;41.60;;;;;;5054891;28;20450;-59
2023/04/06 10:47:50;;;;;;;15.83;12.77;;;17.40;41.70;;;;;;5055789;28;20533;-58
2023/04/06 10:50:17;;;;;;;17.27;13.27;;;17.30;43.10;;;;;;5055101;28;20477;-58
2023/04/06 10:52:46;;;;;;;14.83;12.10;;;16.90;42.20;;;;;;5055094;28;20446;-58
2023/04/06 10:55:14;;;;;;;25.40;13.73;;;16.40;42.90;;;;;;5054996;28;20476;-58
2023/04/06 10:57:41;;;;;;;15.97;12.57;;;16.30;44.70;;;;;;5054974;28;20450;-58
2023/04/06 11:00:09;;;;;;;15.40;11.73;;;16.40;44.10;;;;;;5054734;28;20457;-59
2023/04/06 11:02:38;;;;;;;16.67;12.67;;;16.60;44.60;;;;;;5054770;28;20579;-59
2023/04/06 11:05:06;;;;;;;15.90;12.47;;;16.80;44.50;;;;;;5054567;28;20845;-59
2023/04/06 11:07:33;;;;;;;18.10;12.47;;;16.90;44.80;;;;;;5054937;28;20453;-58
2023/04/06 11:10:00;;;;;;;21.87;12.63;;;17.00;44.40;;;;;;5054716;28;20446;-59
2023/04/06 11:12:28;;;;;;;15.23;12.27;;;17.10;44.00;;;;;;5054736;28;20442;-59
2023/04/06 11:15:00;;;;;;;15.77;11.87;;;17.40;44.70;;;;;;5054383;28;20473;-58
2023/04/06 11:17:28;;;;;;;15.87;12.27;;;17.50;41.80;;;;;;5054722;28;20465;-58
2023/04/06 11:19:56;;;;;;;15.43;12.87;;;17.70;42.50;;;;;;5054555;28;20445;-58
2023/04/06 11:22:23;;;;;;;15.97;11.97;;;17.80;41.10;;;;;;5054445;28;21002;-59
2023/04/06 11:24:50;;;;;;;13.33;11.50;;;17.80;42.10;;;;;;5056557;28;20476;-59
2023/04/06 11:27:19;;;;;;;20.03;13.30;;;18.10;40.80;;;;;;5056475;28;20536;-59
2023/04/06 11:29:46;;;;;;;17.67;11.70;;;18.40;40.00;;;;;;5057250;28;20966;-59
2023/04/06 11:32:22;;;;;;;16.37;12.70;;;18.90;40.80;;;;;;5057008;28;20442;-58
2023/04/06 11:34:49;;;;;;;15.70;12.70;;;19.50;39.90;;;;;;5054146;28;20924;-58
2023/04/06 11:37:17;;;;;;;15.10;11.80;;;20.00;36.90;;;;;;5054559;28;20472;-58
2023/04/06 11:39:49;;;;;;;14.37;9.83;;;20.20;36.00;;;;;;5053774;28;20550;-58
2023/04/06 11:42:23;;;;;;;13.17;9.00;;;20.00;34.00;;;;;;5053714;28;21043;-58
2023/04/06 11:44:52;;;;;;;14.37;10.20;;;19.70;34.90;;;;;;5053712;28;20473;-58
2023/04/06 11:47:19;;;;;;;12.27;9.57;;;19.00;36.20;;;;;;5053173;28;20454;-58
2023/04/06 11:49:47;;;;;;;12.97;10.07;;;18.60;37.20;;;;;;5054020;28;20450;-58
2023/04/06 11:52:20;;;;;;;10.80;9.30;;;18.20;39.20;;;;;;5053902;28;20541;-58
2023/04/06 11:54:48;;;;;;;11.33;10.00;;;18.10;39.70;;;;;;5053859;28;20473;-58
2023/04/06 11:57:16;;;;;;;13.13;10.60;;;18.10;39.70;;;;;;5053916;28;20461;-58
2023/04/06 11:59:43;;;;;;;11.77;8.90;;;18.10;39.10;;;;;;5053406;28;20564;-58
2023/04/06 12:02:11;;;;;;;13.17;10.20;;;18.00;40.20;;;;;;5053316;28;20936;-58
2023/04/06 12:04:37;;;;;;;13.87;9.63;;;17.70;39.20;;;;;;5053636;28;20472;-58
2023/04/06 12:07:05;;;;;;;12.47;9.73;;;17.40;40.10;;;;;;5053736;28;20816;-57
2023/04/06 12:09:35;;;;;;;11.20;8.20;;;17.10;41.90;;;;;;5053216;28;20450;-58
2023/04/06 12:12:02;;;;;;;8.83;7.93;;;16.80;42.40;;;;;;5053563;28;20449;-58
2023/04/06 12:14:30;;;;;;;9.80;7.40;;;16.50;43.90;;;;;;5053467;28;20476;-58
2023/04/06 12:16:57;;;;;;;9.80;6.93;;;16.40;43.20;;;;;;5053624;28;20482;-58
2023/04/06 12:19:25;;;;;;;10.50;6.70;;;16.40;43.00;;;;;;5053458;28;20452;-58
2023/04/06 12:21:53;;;;;;;19.83;7.77;;;16.40;42.70;;;;;;5053339;28;20481;-58
2023/04/06 12:24:20;;;;;;;9.77;7.33;;;16.30;43.90;;;;;;5053312;28;20835;-58
2023/04/06 12:26:48;;;;;;;8.13;7.33;;;16.00;45.50;;;;;;5053348;28;20445;-58
2023/04/06 12:29:15;;;;;;;9.53;7.53;;;15.80;45.00;;;;;;5053264;28;20457;-58
2023/04/06 12:31:44;;;;;;;9.70;8.63;;;15.50;44.70;;;;;;5053060;28;20445;-58
2023/04/06 12:34:11;;;;;;;10.40;8.20;;;15.50;45.60;;;;;;5053209;28;20480;-58
2023/04/06 12:36:38;;;;;;;25.60;7.77;;;15.40;45.90;;;;;;5053253;28;20454;-58